sensor_id;sensor_type;location;lat;lon;timestamp;P1;durP1;ratioP1;P2;durP2;ratioP2
66437;SDS011;54537;47.972;11.662;2022-12-18T00:01:59;56.33;;;15.38;;
66437;SDS011;54537;47.972;11.662;2022-12-18T00:04:25;55.63;;;15.27;;
66437;SDS011;54537;47.972;11.662;2022-12-18T00:06:54;54.83;;;15.55;;
66437;SDS011;54537;47.972;11.662;2022-12-18T00:09:20;48.10;;;14.00;;
66437;SDS011;54537;47.972;11.662;2022-12-18T00:11:47;44.92;;;12.60;;
66437;SDS011;54537;47.972;11.662;2022-12-18T00:14:13;48.30;;;12.57;;
66437;SDS011;54537;47.972;11.662;2022-12-18T00:16:45;49.05;;;13.75;;
66437;SDS011;54537;47.972;11.662;2022-12-18T00:19:12;55.35;;;12.98;;
66437;SDS011;54537;47.972;11.662;2022-12-18T00:21:39;54.50;;;14.88;;
66437;SDS011;54537;47.972;11.662;2022-12-18T00:24:07;58.65;;;14.55;;
66437;SDS011;54537;47.972;11.662;2022-12-18T00:26:35;50.45;;;13.57;;
66437;SDS011;54537;47.972;11.662;2022-12-18T00:29:03;49.28;;;14.38;;
66437;SDS011;54537;47.972;11.662;2022-12-18T00:31:31;45.88;;;13.20;;
66437;SDS011;54537;47.972;11.662;2022-12-18T00:33:57;58.50;;;14.25;;
66437;SDS011;54537;47.972;11.662;2022-12-18T00:36:25;49.17;;;13.15;;
66437;SDS011;54537;47.972;11.662;2022-12-18T00:38:53;55.45;;;14.63;;
66437;SDS011;54537;47.972;11.662;2022-12-18T00:41:22;53.88;;;12.55;;
66437;SDS011;54537;47.972;11.662;2022-12-18T00:44:07;52.28;;;14.13;;
66437;SDS011;54537;47.972;11.662;2022-12-18T00:46:35;43.38;;;13.43;;
66437;SDS011;54537;47.972;11.662;2022-12-18T00:49:02;44.35;;;12.77;;
66437;SDS011;54537;47.972;11.662;2022-12-18T00:51:29;41.88;;;12.20;;
66437;SDS011;54537;47.972;11.662;2022-12-18T00:53:55;48.35;;;13.38;;
66437;SDS011;54537;47.972;11.662;2022-12-18T00:56:23;44.58;;;13.25;;
66437;SDS011;54537;47.972;11.662;2022-12-18T00:58:50;50.83;;;13.43;;
66437;SDS011;54537;47.972;11.662;2022-12-18T01:01:17;41.40;;;12.05;;
66437;SDS011;54537;47.972;11.662;2022-12-18T01:03:44;46.35;;;14.20;;
66437;SDS011;54537;47.972;11.662;2022-12-18T01:06:12;40.13;;;11.07;;
66437;SDS011;54537;47.972;11.662;2022-12-18T01:08:39;53.38;;;12.90;;
66437;SDS011;54537;47.972;11.662;2022-12-18T01:11:07;43.70;;;13.05;;
66437;SDS011;54537;47.972;11.662;2022-12-18T01:13:36;43.40;;;11.85;;
66437;SDS011;54537;47.972;11.662;2022-12-18T01:16:02;59.45;;;13.75;;
66437;SDS011;54537;47.972;11.662;2022-12-18T01:18:29;49.90;;;11.85;;
66437;SDS011;54537;47.972;11.662;2022-12-18T01:20:56;57.85;;;13.75;;
66437;SDS011;54537;47.972;11.662;2022-12-18T01:23:22;52.72;;;13.38;;
66437;SDS011;54537;47.972;11.662;2022-12-18T01:25:49;47.40;;;11.80;;
66437;SDS011;54537;47.972;11.662;2022-12-18T01:28:15;52.28;;;12.18;;
66437;SDS011;54537;47.972;11.662;2022-12-18T01:30:43;49.75;;;12.85;;
66437;SDS011;54537;47.972;11.662;2022-12-18T01:33:10;52.53;;;11.90;;
66437;SDS011;54537;47.972;11.662;2022-12-18T01:35:39;43.10;;;12.95;;
66437;SDS011;54537;47.972;11.662;2022-12-18T01:38:06;49.67;;;13.50;;
66437;SDS011;54537;47.972;11.662;2022-12-18T01:40:33;48.55;;;12.00;;
66437;SDS011;54537;47.972;11.662;2022-12-18T01:42:59;54.40;;;13.07;;
66437;SDS011;54537;47.972;11.662;2022-12-18T01:45:26;45.90;;;12.88;;
66437;SDS011;54537;47.972;11.662;2022-12-18T01:47:56;47.47;;;12.02;;
66437;SDS011;54537;47.972;11.662;2022-12-18T01:50:25;51.42;;;12.60;;
66437;SDS011;54537;47.972;11.662;2022-12-18T01:52:56;51.17;;;14.20;;
66437;SDS011;54537;47.972;11.662;2022-12-18T01:55:25;46.35;;;12.43;;
66437;SDS011;54537;47.972;11.662;2022-12-18T01:57:54;41.95;;;11.52;;
66437;SDS011;54537;47.972;11.662;2022-12-18T02:00:22;51.55;;;12.98;;
66437;SDS011;54537;47.972;11.662;2022-12-18T02:02:49;56.08;;;12.05;;
66437;SDS011;54537;47.972;11.662;2022-12-18T02:05:18;53.90;;;13.40;;
66437;SDS011;54537;47.972;11.662;2022-12-18T02:08:01;46.35;;;12.85;;
66437;SDS011;54537;47.972;11.662;2022-12-18T02:10:33;52.78;;;13.65;;
66437;SDS011;54537;47.972;11.662;2022-12-18T02:13:05;44.88;;;11.80;;
66437;SDS011;54537;47.972;11.662;2022-12-18T02:15:36;44.30;;;13.68;;
66437;SDS011;54537;47.972;11.662;2022-12-18T02:18:05;51.95;;;13.75;;
66437;SDS011;54537;47.972;11.662;2022-12-18T02:20:37;47.70;;;12.18;;
66437;SDS011;54537;47.972;11.662;2022-12-18T02:23:11;45.35;;;11.80;;
66437;SDS011;54537;47.972;11.662;2022-12-18T02:25:54;51.78;;;14.35;;
66437;SDS011;54537;47.972;11.662;2022-12-18T02:28:30;54.13;;;13.45;;
66437;SDS011;54537;47.972;11.662;2022-12-18T02:30:58;53.22;;;12.40;;
66437;SDS011;54537;47.972;11.662;2022-12-18T02:33:27;58.20;;;14.82;;
66437;SDS011;54537;47.972;11.662;2022-12-18T02:35:55;45.67;;;12.32;;
66437;SDS011;54537;47.972;11.662;2022-12-18T02:38:23;54.00;;;12.95;;
66437;SDS011;54537;47.972;11.662;2022-12-18T02:40:50;47.38;;;12.38;;
66437;SDS011;54537;47.972;11.662;2022-12-18T02:43:21;52.80;;;12.32;;
66437;SDS011;54537;47.972;11.662;2022-12-18T02:45:48;52.00;;;13.57;;
66437;SDS011;54537;47.972;11.662;2022-12-18T02:48:16;48.08;;;13.60;;
66437;SDS011;54537;47.972;11.662;2022-12-18T02:50:44;49.97;;;13.02;;
66437;SDS011;54537;47.972;11.662;2022-12-18T02:53:14;56.13;;;13.98;;
66437;SDS011;54537;47.972;11.662;2022-12-18T02:55:47;59.90;;;14.35;;
66437;SDS011;54537;47.972;11.662;2022-12-18T02:58:24;54.67;;;13.77;;
66437;SDS011;54537;47.972;11.662;2022-12-18T03:00:56;54.33;;;14.43;;
66437;SDS011;54537;47.972;11.662;2022-12-18T03:03:25;51.00;;;13.15;;
66437;SDS011;54537;47.972;11.662;2022-12-18T03:05:56;50.33;;;13.35;;
66437;SDS011;54537;47.972;11.662;2022-12-18T03:08:25;49.90;;;12.50;;
66437;SDS011;54537;47.972;11.662;2022-12-18T03:10:54;55.10;;;13.85;;
66437;SDS011;54537;47.972;11.662;2022-12-18T03:13:26;49.13;;;13.27;;
66437;SDS011;54537;47.972;11.662;2022-12-18T03:15:54;56.63;;;13.52;;
66437;SDS011;54537;47.972;11.662;2022-12-18T03:18:23;52.65;;;13.82;;
66437;SDS011;54537;47.972;11.662;2022-12-18T03:20:52;53.80;;;13.73;;
66437;SDS011;54537;47.972;11.662;2022-12-18T03:23:21;54.25;;;14.35;;
66437;SDS011;54537;47.972;11.662;2022-12-18T03:25:49;47.90;;;13.45;;
66437;SDS011;54537;47.972;11.662;2022-12-18T03:28:19;52.97;;;15.30;;
66437;SDS011;54537;47.972;11.662;2022-12-18T03:30:49;48.20;;;12.80;;
66437;SDS011;54537;47.972;11.662;2022-12-18T03:33:21;53.40;;;14.13;;
66437;SDS011;54537;47.972;11.662;2022-12-18T03:35:51;60.97;;;14.07;;
66437;SDS011;54537;47.972;11.662;2022-12-18T03:38:18;48.72;;;13.30;;
66437;SDS011;54537;47.972;11.662;2022-12-18T03:40:49;51.05;;;13.50;;
66437;SDS011;54537;47.972;11.662;2022-12-18T03:43:20;48.13;;;12.50;;
66437;SDS011;54537;47.972;11.662;2022-12-18T03:45:58;51.17;;;12.45;;
66437;SDS011;54537;47.972;11.662;2022-12-18T03:48:29;55.88;;;13.32;;
66437;SDS011;54537;47.972;11.662;2022-12-18T03:51:01;46.70;;;12.02;;
66437;SDS011;54537;47.972;11.662;2022-12-18T03:53:33;48.22;;;13.02;;
66437;SDS011;54537;47.972;11.662;2022-12-18T03:56:05;43.70;;;11.93;;
66437;SDS011;54537;47.972;11.662;2022-12-18T03:58:32;43.60;;;12.15;;
66437;SDS011;54537;47.972;11.662;2022-12-18T04:01:02;48.70;;;12.48;;
66437;SDS011;54537;47.972;11.662;2022-12-18T04:03:31;52.30;;;12.70;;
66437;SDS011;54537;47.972;11.662;2022-12-18T04:05:58;44.10;;;11.68;;
66437;SDS011;54537;47.972;11.662;2022-12-18T04:08:26;53.97;;;13.63;;
66437;SDS011;54537;47.972;11.662;2022-12-18T04:10:52;48.35;;;12.93;;
66437;SDS011;54537;47.972;11.662;2022-12-18T04:13:22;44.92;;;12.15;;
66437;SDS011;54537;47.972;11.662;2022-12-18T04:15:49;48.33;;;13.63;;
66437;SDS011;54537;47.972;11.662;2022-12-18T04:18:17;52.83;;;13.68;;
66437;SDS011;54537;47.972;11.662;2022-12-18T04:20:44;54.20;;;14.48;;
66437;SDS011;54537;47.972;11.662;2022-12-18T04:23:10;48.65;;;14.88;;
66437;SDS011;54537;47.972;11.662;2022-12-18T04:25:37;53.78;;;13.82;;
66437;SDS011;54537;47.972;11.662;2022-12-18T04:28:04;58.65;;;15.27;;
66437;SDS011;54537;47.972;11.662;2022-12-18T04:30:30;57.30;;;14.32;;
66437;SDS011;54537;47.972;11.662;2022-12-18T04:32:57;49.60;;;14.63;;
66437;SDS011;54537;47.972;11.662;2022-12-18T04:35:24;54.38;;;14.05;;
66437;SDS011;54537;47.972;11.662;2022-12-18T04:37:51;49.63;;;12.88;;
66437;SDS011;54537;47.972;11.662;2022-12-18T04:40:18;57.60;;;13.98;;
66437;SDS011;54537;47.972;11.662;2022-12-18T04:42:44;54.38;;;14.32;;
66437;SDS011;54537;47.972;11.662;2022-12-18T04:45:11;48.45;;;14.23;;
66437;SDS011;54537;47.972;11.662;2022-12-18T04:47:37;48.47;;;13.98;;
66437;SDS011;54537;47.972;11.662;2022-12-18T04:50:04;52.60;;;14.27;;
66437;SDS011;54537;47.972;11.662;2022-12-18T04:52:33;50.03;;;13.82;;
66437;SDS011;54537;47.972;11.662;2022-12-18T04:54:59;51.42;;;13.38;;
66437;SDS011;54537;47.972;11.662;2022-12-18T04:57:26;53.38;;;13.90;;
66437;SDS011;54537;47.972;11.662;2022-12-18T04:59:52;47.63;;;12.93;;
66437;SDS011;54537;47.972;11.662;2022-12-18T05:02:19;46.70;;;13.88;;
66437;SDS011;54537;47.972;11.662;2022-12-18T05:04:45;53.60;;;13.80;;
66437;SDS011;54537;47.972;11.662;2022-12-18T05:07:12;53.63;;;14.45;;
66437;SDS011;54537;47.972;11.662;2022-12-18T05:09:40;51.95;;;13.82;;
66437;SDS011;54537;47.972;11.662;2022-12-18T05:12:06;49.35;;;13.18;;
66437;SDS011;54537;47.972;11.662;2022-12-18T05:14:33;51.30;;;13.45;;
66437;SDS011;54537;47.972;11.662;2022-12-18T05:16:59;46.90;;;12.98;;
66437;SDS011;54537;47.972;11.662;2022-12-18T05:19:26;54.50;;;13.05;;
66437;SDS011;54537;47.972;11.662;2022-12-18T05:21:52;42.00;;;11.95;;
66437;SDS011;54537;47.972;11.662;2022-12-18T05:24:19;44.47;;;12.30;;
66437;SDS011;54537;47.972;11.662;2022-12-18T05:26:47;53.55;;;13.35;;
66437;SDS011;54537;47.972;11.662;2022-12-18T05:29:15;44.70;;;12.35;;
66437;SDS011;54537;47.972;11.662;2022-12-18T05:31:41;55.47;;;14.82;;
66437;SDS011;54537;47.972;11.662;2022-12-18T05:34:08;51.40;;;12.27;;
66437;SDS011;54537;47.972;11.662;2022-12-18T05:36:34;47.75;;;13.20;;
66437;SDS011;54537;47.972;11.662;2022-12-18T05:39:01;43.67;;;12.68;;
66437;SDS011;54537;47.972;11.662;2022-12-18T05:41:27;47.97;;;13.15;;
66437;SDS011;54537;47.972;11.662;2022-12-18T05:43:55;48.40;;;12.50;;
66437;SDS011;54537;47.972;11.662;2022-12-18T05:46:22;50.83;;;13.50;;
66437;SDS011;54537;47.972;11.662;2022-12-18T05:48:49;47.25;;;13.00;;
66437;SDS011;54537;47.972;11.662;2022-12-18T05:51:17;44.88;;;11.40;;
66437;SDS011;54537;47.972;11.662;2022-12-18T05:53:45;48.47;;;12.73;;
66437;SDS011;54537;47.972;11.662;2022-12-18T05:56:13;46.80;;;12.32;;
66437;SDS011;54537;47.972;11.662;2022-12-18T05:58:41;45.78;;;12.85;;
66437;SDS011;54537;47.972;11.662;2022-12-18T06:01:10;41.63;;;11.77;;
66437;SDS011;54537;47.972;11.662;2022-12-18T06:03:38;50.63;;;13.98;;
66437;SDS011;54537;47.972;11.662;2022-12-18T06:06:11;50.78;;;13.80;;
66437;SDS011;54537;47.972;11.662;2022-12-18T06:08:39;51.13;;;12.98;;
66437;SDS011;54537;47.972;11.662;2022-12-18T06:11:05;41.20;;;11.35;;
66437;SDS011;54537;47.972;11.662;2022-12-18T06:13:32;47.65;;;12.75;;
66437;SDS011;54537;47.972;11.662;2022-12-18T06:16:01;37.95;;;10.85;;
66437;SDS011;54537;47.972;11.662;2022-12-18T06:18:29;35.53;;;10.75;;
66437;SDS011;54537;47.972;11.662;2022-12-18T06:20:56;40.08;;;10.75;;
66437;SDS011;54537;47.972;11.662;2022-12-18T06:23:23;50.63;;;12.80;;
66437;SDS011;54537;47.972;11.662;2022-12-18T06:25:50;43.55;;;12.68;;
66437;SDS011;54537;47.972;11.662;2022-12-18T06:28:16;37.58;;;11.18;;
66437;SDS011;54537;47.972;11.662;2022-12-18T06:30:43;38.70;;;11.70;;
66437;SDS011;54537;47.972;11.662;2022-12-18T06:33:09;43.20;;;13.10;;
66437;SDS011;54537;47.972;11.662;2022-12-18T06:35:37;48.20;;;13.13;;
66437;SDS011;54537;47.972;11.662;2022-12-18T06:38:04;41.50;;;11.77;;
66437;SDS011;54537;47.972;11.662;2022-12-18T06:40:31;39.83;;;10.75;;
66437;SDS011;54537;47.972;11.662;2022-12-18T06:42:57;44.15;;;11.88;;
66437;SDS011;54537;47.972;11.662;2022-12-18T06:45:24;46.50;;;11.82;;
66437;SDS011;54537;47.972;11.662;2022-12-18T06:47:50;40.60;;;11.57;;
66437;SDS011;54537;47.972;11.662;2022-12-18T06:50:17;48.55;;;11.60;;
66437;SDS011;54537;47.972;11.662;2022-12-18T06:52:45;36.25;;;9.98;;
66437;SDS011;54537;47.972;11.662;2022-12-18T06:55:11;49.47;;;11.95;;
66437;SDS011;54537;47.972;11.662;2022-12-18T06:57:38;41.50;;;11.20;;
66437;SDS011;54537;47.972;11.662;2022-12-18T07:00:05;43.75;;;11.40;;
66437;SDS011;54537;47.972;11.662;2022-12-18T07:02:32;37.85;;;10.13;;
66437;SDS011;54537;47.972;11.662;2022-12-18T07:04:59;39.83;;;10.98;;
66437;SDS011;54537;47.972;11.662;2022-12-18T07:07:25;38.70;;;9.40;;
66437;SDS011;54537;47.972;11.662;2022-12-18T07:09:53;42.63;;;10.25;;
66437;SDS011;54537;47.972;11.662;2022-12-18T07:12:20;34.70;;;10.68;;
66437;SDS011;54537;47.972;11.662;2022-12-18T07:14:46;45.58;;;11.88;;
66437;SDS011;54537;47.972;11.662;2022-12-18T07:17:13;41.33;;;10.00;;
66437;SDS011;54537;47.972;11.662;2022-12-18T07:19:39;44.58;;;10.80;;
66437;SDS011;54537;47.972;11.662;2022-12-18T07:22:06;43.00;;;12.05;;
66437;SDS011;54537;47.972;11.662;2022-12-18T07:24:32;40.50;;;10.15;;
66437;SDS011;54537;47.972;11.662;2022-12-18T07:27:00;38.15;;;10.48;;
66437;SDS011;54537;47.972;11.662;2022-12-18T07:29:27;36.22;;;10.43;;
66437;SDS011;54537;47.972;11.662;2022-12-18T07:31:53;43.35;;;12.50;;
66437;SDS011;54537;47.972;11.662;2022-12-18T07:34:20;46.83;;;12.32;;
66437;SDS011;54537;47.972;11.662;2022-12-18T07:36:47;36.92;;;10.63;;
66437;SDS011;54537;47.972;11.662;2022-12-18T07:39:13;40.72;;;9.77;;
66437;SDS011;54537;47.972;11.662;2022-12-18T07:41:40;41.75;;;11.30;;
66437;SDS011;54537;47.972;11.662;2022-12-18T07:44:12;43.42;;;11.50;;
66437;SDS011;54537;47.972;11.662;2022-12-18T07:46:38;39.03;;;10.00;;
66437;SDS011;54537;47.972;11.662;2022-12-18T07:49:05;40.90;;;10.80;;
66437;SDS011;54537;47.972;11.662;2022-12-18T07:51:32;43.03;;;10.70;;
66437;SDS011;54537;47.972;11.662;2022-12-18T07:53:58;40.85;;;10.10;;
66437;SDS011;54537;47.972;11.662;2022-12-18T07:56:25;34.15;;;9.57;;
66437;SDS011;54537;47.972;11.662;2022-12-18T07:58:51;41.72;;;10.38;;
66437;SDS011;54537;47.972;11.662;2022-12-18T08:01:19;41.78;;;10.32;;
66437;SDS011;54537;47.972;11.662;2022-12-18T08:03:46;41.17;;;10.32;;
66437;SDS011;54537;47.972;11.662;2022-12-18T08:06:12;37.88;;;10.55;;
66437;SDS011;54537;47.972;11.662;2022-12-18T08:08:39;37.92;;;10.38;;
66437;SDS011;54537;47.972;11.662;2022-12-18T08:11:07;42.80;;;11.18;;
66437;SDS011;54537;47.972;11.662;2022-12-18T08:13:33;37.92;;;10.90;;
66437;SDS011;54537;47.972;11.662;2022-12-18T08:16:01;42.35;;;10.60;;
66437;SDS011;54537;47.972;11.662;2022-12-18T08:18:37;33.38;;;10.75;;
66437;SDS011;54537;47.972;11.662;2022-12-18T08:21:07;42.33;;;11.38;;
66437;SDS011;54537;47.972;11.662;2022-12-18T08:23:35;38.88;;;10.07;;
66437;SDS011;54537;47.972;11.662;2022-12-18T08:26:01;49.20;;;11.32;;
66437;SDS011;54537;47.972;11.662;2022-12-18T08:28:28;41.55;;;10.80;;
66437;SDS011;54537;47.972;11.662;2022-12-18T08:30:54;40.60;;;10.32;;
66437;SDS011;54537;47.972;11.662;2022-12-18T08:33:21;34.28;;;10.23;;
66437;SDS011;54537;47.972;11.662;2022-12-18T08:35:49;39.60;;;10.57;;
66437;SDS011;54537;47.972;11.662;2022-12-18T08:38:15;39.75;;;10.60;;
66437;SDS011;54537;47.972;11.662;2022-12-18T08:40:42;35.60;;;8.38;;
66437;SDS011;54537;47.972;11.662;2022-12-18T08:43:09;35.47;;;10.38;;
66437;SDS011;54537;47.972;11.662;2022-12-18T08:45:53;34.15;;;9.32;;
66437;SDS011;54537;47.972;11.662;2022-12-18T08:48:20;38.53;;;10.20;;
66437;SDS011;54537;47.972;11.662;2022-12-18T08:50:54;38.40;;;11.13;;
66437;SDS011;54537;47.972;11.662;2022-12-18T08:53:21;34.78;;;10.00;;
66437;SDS011;54537;47.972;11.662;2022-12-18T08:55:47;35.50;;;9.27;;
66437;SDS011;54537;47.972;11.662;2022-12-18T08:58:14;37.40;;;10.07;;
66437;SDS011;54537;47.972;11.662;2022-12-18T09:00:40;37.47;;;10.57;;
66437;SDS011;54537;47.972;11.662;2022-12-18T09:03:10;39.45;;;10.32;;
66437;SDS011;54537;47.972;11.662;2022-12-18T09:05:37;36.47;;;9.52;;
66437;SDS011;54537;47.972;11.662;2022-12-18T09:08:05;31.80;;;9.27;;
66437;SDS011;54537;47.972;11.662;2022-12-18T09:10:31;33.20;;;9.45;;
66437;SDS011;54537;47.972;11.662;2022-12-18T09:12:58;41.70;;;10.85;;
66437;SDS011;54537;47.972;11.662;2022-12-18T09:15:25;28.55;;;8.35;;
66437;SDS011;54537;47.972;11.662;2022-12-18T09:17:51;35.20;;;9.98;;
66437;SDS011;54537;47.972;11.662;2022-12-18T09:20:18;26.15;;;8.48;;
66437;SDS011;54537;47.972;11.662;2022-12-18T09:22:45;38.03;;;9.60;;
66437;SDS011;54537;47.972;11.662;2022-12-18T09:25:13;36.50;;;10.77;;
66437;SDS011;54537;47.972;11.662;2022-12-18T09:27:39;40.67;;;10.32;;
66437;SDS011;54537;47.972;11.662;2022-12-18T09:30:07;32.22;;;9.65;;
66437;SDS011;54537;47.972;11.662;2022-12-18T09:32:34;41.15;;;10.50;;
66437;SDS011;54537;47.972;11.662;2022-12-18T09:35:00;33.25;;;9.27;;
66437;SDS011;54537;47.972;11.662;2022-12-18T09:37:27;32.80;;;9.00;;
66437;SDS011;54537;47.972;11.662;2022-12-18T09:39:53;38.00;;;9.68;;
66437;SDS011;54537;47.972;11.662;2022-12-18T09:42:21;36.53;;;9.00;;
66437;SDS011;54537;47.972;11.662;2022-12-18T09:44:49;35.78;;;10.20;;
66437;SDS011;54537;47.972;11.662;2022-12-18T09:47:17;36.50;;;10.73;;
66437;SDS011;54537;47.972;11.662;2022-12-18T09:49:47;36.30;;;10.25;;
66437;SDS011;54537;47.972;11.662;2022-12-18T09:52:16;34.67;;;10.48;;
66437;SDS011;54537;47.972;11.662;2022-12-18T09:54:46;36.05;;;9.30;;
66437;SDS011;54537;47.972;11.662;2022-12-18T09:57:17;39.97;;;11.23;;
66437;SDS011;54537;47.972;11.662;2022-12-18T09:59:47;33.97;;;9.57;;
66437;SDS011;54537;47.972;11.662;2022-12-18T10:02:17;36.35;;;10.10;;
66437;SDS011;54537;47.972;11.662;2022-12-18T10:04:47;36.28;;;9.45;;
66437;SDS011;54537;47.972;11.662;2022-12-18T10:07:22;31.38;;;8.95;;
66437;SDS011;54537;47.972;11.662;2022-12-18T10:09:52;43.17;;;10.85;;
66437;SDS011;54537;47.972;11.662;2022-12-18T10:12:23;34.67;;;10.77;;
66437;SDS011;54537;47.972;11.662;2022-12-18T10:14:57;33.92;;;10.23;;
66437;SDS011;54537;47.972;11.662;2022-12-18T10:17:26;38.38;;;9.18;;
66437;SDS011;54537;47.972;11.662;2022-12-18T10:19:57;32.05;;;9.30;;
66437;SDS011;54537;47.972;11.662;2022-12-18T10:22:33;37.25;;;9.85;;
66437;SDS011;54537;47.972;11.662;2022-12-18T10:25:06;30.55;;;9.35;;
66437;SDS011;54537;47.972;11.662;2022-12-18T10:27:41;38.42;;;10.45;;
66437;SDS011;54537;47.972;11.662;2022-12-18T10:30:14;31.92;;;8.80;;
66437;SDS011;54537;47.972;11.662;2022-12-18T10:32:41;32.97;;;8.82;;
66437;SDS011;54537;47.972;11.662;2022-12-18T10:35:09;33.53;;;9.43;;
66437;SDS011;54537;47.972;11.662;2022-12-18T10:40:28;33.40;;;8.52;;
66437;SDS011;54537;47.972;11.662;2022-12-18T10:43:04;29.08;;;8.40;;
66437;SDS011;54537;47.972;11.662;2022-12-18T10:45:33;32.03;;;9.63;;
66437;SDS011;54537;47.972;11.662;2022-12-18T10:48:00;32.88;;;9.90;;
66437;SDS011;54537;47.972;11.662;2022-12-18T10:50:28;32.20;;;8.30;;
66437;SDS011;54537;47.972;11.662;2022-12-18T10:52:57;32.08;;;8.77;;
66437;SDS011;54537;47.972;11.662;2022-12-18T10:55:24;33.15;;;9.77;;
66437;SDS011;54537;47.972;11.662;2022-12-18T10:58:05;31.92;;;9.45;;
66437;SDS011;54537;47.972;11.662;2022-12-18T11:00:41;39.67;;;10.80;;
66437;SDS011;54537;47.972;11.662;2022-12-18T11:03:13;33.35;;;9.98;;
66437;SDS011;54537;47.972;11.662;2022-12-18T11:06:01;30.63;;;8.20;;
66437;SDS011;54537;47.972;11.662;2022-12-18T11:08:29;28.48;;;9.75;;
66437;SDS011;54537;47.972;11.662;2022-12-18T11:10:55;35.05;;;8.75;;
66437;SDS011;54537;47.972;11.662;2022-12-18T11:13:23;33.00;;;9.05;;
66437;SDS011;54537;47.972;11.662;2022-12-18T11:15:51;31.10;;;8.65;;
66437;SDS011;54537;47.972;11.662;2022-12-18T11:18:19;29.15;;;8.48;;
66437;SDS011;54537;47.972;11.662;2022-12-18T11:20:52;35.28;;;9.00;;
66437;SDS011;54537;47.972;11.662;2022-12-18T11:23:20;33.80;;;9.48;;
66437;SDS011;54537;47.972;11.662;2022-12-18T11:25:52;32.75;;;9.27;;
66437;SDS011;54537;47.972;11.662;2022-12-18T11:28:28;30.90;;;9.75;;
66437;SDS011;54537;47.972;11.662;2022-12-18T11:31:16;30.45;;;9.38;;
66437;SDS011;54537;47.972;11.662;2022-12-18T11:33:46;32.22;;;9.23;;
66437;SDS011;54537;47.972;11.662;2022-12-18T11:36:16;35.72;;;10.40;;
66437;SDS011;54537;47.972;11.662;2022-12-18T11:38:43;32.65;;;10.02;;
66437;SDS011;54537;47.972;11.662;2022-12-18T11:41:13;33.65;;;9.20;;
66437;SDS011;54537;47.972;11.662;2022-12-18T11:43:44;33.45;;;10.13;;
66437;SDS011;54537;47.972;11.662;2022-12-18T11:46:17;38.67;;;12.38;;
66437;SDS011;54537;47.972;11.662;2022-12-18T11:48:46;29.95;;;9.90;;
66437;SDS011;54537;47.972;11.662;2022-12-18T11:51:18;29.10;;;9.02;;
66437;SDS011;54537;47.972;11.662;2022-12-18T11:53:49;35.15;;;10.50;;
66437;SDS011;54537;47.972;11.662;2022-12-18T11:56:26;33.08;;;9.00;;
66437;SDS011;54537;47.972;11.662;2022-12-18T11:58:57;38.33;;;11.77;;
66437;SDS011;54537;47.972;11.662;2022-12-18T12:01:34;33.72;;;9.75;;
66437;SDS011;54537;47.972;11.662;2022-12-18T12:04:13;29.17;;;8.20;;
66437;SDS011;54537;47.972;11.662;2022-12-18T12:06:49;31.35;;;9.80;;
66437;SDS011;54537;47.972;11.662;2022-12-18T12:09:21;34.65;;;8.32;;
66437;SDS011;54537;47.972;11.662;2022-12-18T12:11:56;38.03;;;9.63;;
66437;SDS011;54537;47.972;11.662;2022-12-18T12:14:34;29.55;;;8.48;;
66437;SDS011;54537;47.972;11.662;2022-12-18T12:17:09;30.30;;;9.05;;
66437;SDS011;54537;47.972;11.662;2022-12-18T12:19:42;36.40;;;10.23;;
66437;SDS011;54537;47.972;11.662;2022-12-18T12:22:13;30.52;;;8.10;;
66437;SDS011;54537;47.972;11.662;2022-12-18T12:24:48;28.98;;;9.20;;
66437;SDS011;54537;47.972;11.662;2022-12-18T12:27:22;37.78;;;11.40;;
66437;SDS011;54537;47.972;11.662;2022-12-18T12:29:57;34.40;;;8.85;;
66437;SDS011;54537;47.972;11.662;2022-12-18T12:32:33;32.97;;;10.15;;
66437;SDS011;54537;47.972;11.662;2022-12-18T12:35:12;37.60;;;10.45;;
66437;SDS011;54537;47.972;11.662;2022-12-18T12:37:47;33.95;;;9.60;;
66437;SDS011;54537;47.972;11.662;2022-12-18T12:40:18;33.65;;;9.32;;
66437;SDS011;54537;47.972;11.662;2022-12-18T12:42:46;39.22;;;10.35;;
66437;SDS011;54537;47.972;11.662;2022-12-18T12:45:33;33.13;;;9.45;;
66437;SDS011;54537;47.972;11.662;2022-12-18T12:48:03;39.72;;;10.73;;
66437;SDS011;54537;47.972;11.662;2022-12-18T12:50:32;36.38;;;10.13;;
66437;SDS011;54537;47.972;11.662;2022-12-18T12:53:00;34.50;;;9.68;;
66437;SDS011;54537;47.972;11.662;2022-12-18T12:55:28;33.78;;;9.20;;
66437;SDS011;54537;47.972;11.662;2022-12-18T12:57:57;36.38;;;9.93;;
66437;SDS011;54537;47.972;11.662;2022-12-18T13:00:26;33.20;;;9.18;;
66437;SDS011;54537;47.972;11.662;2022-12-18T13:02:54;34.17;;;9.48;;
66437;SDS011;54537;47.972;11.662;2022-12-18T13:05:29;36.40;;;9.40;;
66437;SDS011;54537;47.972;11.662;2022-12-18T13:07:59;31.40;;;9.48;;
66437;SDS011;54537;47.972;11.662;2022-12-18T13:10:33;35.03;;;10.00;;
66437;SDS011;54537;47.972;11.662;2022-12-18T13:13:01;31.25;;;9.60;;
66437;SDS011;54537;47.972;11.662;2022-12-18T13:15:30;29.70;;;8.65;;
66437;SDS011;54537;47.972;11.662;2022-12-18T13:18:09;31.83;;;9.43;;
66437;SDS011;54537;47.972;11.662;2022-12-18T13:20:41;30.63;;;9.30;;
66437;SDS011;54537;47.972;11.662;2022-12-18T13:23:19;33.38;;;8.77;;
66437;SDS011;54537;47.972;11.662;2022-12-18T13:25:50;31.15;;;8.82;;
66437;SDS011;54537;47.972;11.662;2022-12-18T13:28:18;30.25;;;9.60;;
66437;SDS011;54537;47.972;11.662;2022-12-18T13:30:51;33.17;;;9.55;;
66437;SDS011;54537;47.972;11.662;2022-12-18T13:36:30;32.65;;;9.02;;
66437;SDS011;54537;47.972;11.662;2022-12-18T13:45:38;33.42;;;8.35;;
66437;SDS011;54537;47.972;11.662;2022-12-18T13:48:14;29.30;;;9.07;;
66437;SDS011;54537;47.972;11.662;2022-12-18T13:50:43;31.90;;;9.50;;
66437;SDS011;54537;47.972;11.662;2022-12-18T13:53:18;32.83;;;9.75;;
66437;SDS011;54537;47.972;11.662;2022-12-18T13:55:47;39.90;;;10.50;;
66437;SDS011;54537;47.972;11.662;2022-12-18T13:58:15;31.10;;;8.68;;
66437;SDS011;54537;47.972;11.662;2022-12-18T14:00:42;31.65;;;9.10;;
66437;SDS011;54537;47.972;11.662;2022-12-18T14:03:15;41.28;;;10.07;;
66437;SDS011;54537;47.972;11.662;2022-12-18T14:05:43;28.63;;;8.52;;
66437;SDS011;54537;47.972;11.662;2022-12-18T14:08:12;32.33;;;9.75;;
66437;SDS011;54537;47.972;11.662;2022-12-18T14:10:42;32.55;;;8.52;;
66437;SDS011;54537;47.972;11.662;2022-12-18T14:13:10;29.15;;;8.43;;
66437;SDS011;54537;47.972;11.662;2022-12-18T14:15:49;32.58;;;10.30;;
66437;SDS011;54537;47.972;11.662;2022-12-18T14:18:19;37.97;;;10.45;;
66437;SDS011;54537;47.972;11.662;2022-12-18T14:20:48;36.60;;;10.35;;
66437;SDS011;54537;47.972;11.662;2022-12-18T14:23:29;34.28;;;9.40;;
66437;SDS011;54537;47.972;11.662;2022-12-18T14:25:59;37.40;;;10.63;;
66437;SDS011;54537;47.972;11.662;2022-12-18T14:28:26;33.60;;;9.07;;
66437;SDS011;54537;47.972;11.662;2022-12-18T14:30:53;33.95;;;8.95;;
66437;SDS011;54537;47.972;11.662;2022-12-18T14:33:21;37.28;;;9.65;;
66437;SDS011;54537;47.972;11.662;2022-12-18T14:35:53;35.60;;;9.05;;
66437;SDS011;54537;47.972;11.662;2022-12-18T14:38:21;41.80;;;11.23;;